La Rinconada, Spain
Current Conditions -  °F | °C
As of 1:30 PM on Sunday 25 Jan 2015 (Local Time) from LEZL Reporting Station
Clear Clear  
Wind Chill: 59°   Ceiling: Unl
Heat Index: 59°   Visibility: 6mi
Dew Point: 37°   Wind: 9mph
Humidity: 45%   Direction: 70°ENE
Pressure: 30.33"   Gusts: NA
Location:  37.49°N, 5.98°W
Report Text: LEZL 251230Z 07008KT 050V120 CAVOK 15/03 Q1027 NOSIG
Loading
Personal Weather Stations






























Interactive Weather Map New forecast layout! Learn more

10-Day Weather Forecast

Advertisements
Track Severe Weather on mobile